Time;durP1;ratioP1;P1;durP2;ratioP2;P2;SDS_P1;SDS_P2;PMS_P1;PMS_P2;Temp;Humidity;BMP_temperature;BMP_pressure;BME280_temperature;BME280_humidity;BME280_pressure;Samples;Min_cycle;Max_cycle;Signal;HPM_P1;HPM_P2
2022/10/13 00:01:12;;;;;;;14.27;6.37;;;15.40;80.60;;;;;;5017833;28;20263;-76
2022/10/13 00:03:41;;;;;;;17.13;6.50;;;15.40;81.40;;;;;;5012142;28;20709;-76
2022/10/13 00:06:10;;;;;;;15.10;6.73;;;15.40;80.60;;;;;;5024634;28;20192;-76
2022/10/13 00:08:39;;;;;;;13.87;6.87;;;15.40;80.70;;;;;;5016954;28;20837;-75
2022/10/13 00:11:14;;;;;;;16.80;6.57;;;15.40;80.80;;;;;;5027138;28;20200;-76
2022/10/13 00:13:43;;;;;;;12.53;6.13;;;15.40;80.80;;;;;;5016736;28;20298;-76
2022/10/13 00:16:14;;;;;;;14.07;6.70;;;15.40;80.80;;;;;;5029180;28;20216;-76
2022/10/13 00:18:42;;;;;;;16.33;6.93;;;15.40;80.90;;;;;;5028095;28;20227;-77
2022/10/13 00:21:12;;;;;;;15.20;6.57;;;15.40;81.00;;;;;;5018669;28;20220;-77
2022/10/13 00:23:41;;;;;;;11.37;6.03;;;15.40;81.00;;;;;;5025457;28;20219;-77
2022/10/13 00:26:12;;;;;;;16.17;7.20;;;15.40;81.00;;;;;;5017831;28;20441;-75
2022/10/13 00:28:42;;;;;;;17.47;6.87;;;15.40;81.50;;;;;;5022062;28;20196;-75
2022/10/13 00:31:18;;;;;;;14.73;6.53;;;15.40;81.40;;;;;;5023623;28;20199;-75
2022/10/13 00:33:48;;;;;;;16.07;6.93;;;15.40;81.40;;;;;;5022957;28;20604;-75
2022/10/13 00:36:16;;;;;;;17.17;6.60;;;15.40;81.50;;;;;;5023851;28;20255;-76
2022/10/13 00:38:45;;;;;;;20.13;6.17;;;15.40;81.60;;;;;;5020291;28;20289;-75
2022/10/13 00:41:13;;;;;;;15.60;6.43;;;15.30;81.60;;;;;;5024751;28;20235;-76
2022/10/13 00:43:52;;;;;;;14.53;6.57;;;15.30;81.60;;;;;;5032526;28;20202;-76
2022/10/13 00:46:21;;;;;;;10.93;5.87;;;15.30;81.80;;;;;;5024405;28;20227;-76
2022/10/13 00:48:51;;;;;;;14.20;6.90;;;15.30;81.80;;;;;;5021212;28;20639;-77
2022/10/13 00:51:24;;;;;;;19.17;6.60;;;15.20;81.70;;;;;;5024735;28;20227;-77
2022/10/13 00:53:54;;;;;;;14.20;7.13;;;15.20;81.60;;;;;;5022347;28;20295;-76
2022/10/13 00:56:26;;;;;;;16.60;6.33;;;15.20;81.60;;;;;;5020574;28;20278;-76
2022/10/13 00:58:56;;;;;;;14.67;7.83;;;15.20;81.60;;;;;;5027032;28;20239;-76
2022/10/13 01:01:24;;;;;;;15.53;7.23;;;15.20;81.60;;;;;;5020702;28;20222;-76
2022/10/13 01:03:52;;;;;;;10.70;5.97;;;15.20;81.60;;;;;;5016958;28;20188;-76
2022/10/13 01:06:21;;;;;;;16.63;6.80;;;15.20;81.80;;;;;;5015053;28;20203;-77
2022/10/13 01:08:51;;;;;;;15.50;6.77;;;15.20;81.80;;;;;;5029113;28;20192;-76
2022/10/13 01:11:49;;;;;;;13.03;7.10;;;15.20;81.80;;;;;;5022883;28;20220;-77
2022/10/13 01:14:28;;;;;;;14.10;7.13;;;15.10;81.80;;;;;;5025916;28;20265;-76
2022/10/13 01:17:04;;;;;;;15.97;7.00;;;15.10;81.80;;;;;;5031473;28;20228;-76
2022/10/13 01:19:50;;;;;;;14.50;7.03;;;15.10;81.90;;;;;;5021353;28;20684;-76
2022/10/13 01:22:36;;;;;;;18.77;7.23;;;15.10;82.00;;;;;;5017237;28;20283;-76
2022/10/13 01:25:13;;;;;;;15.50;7.00;;;15.10;81.90;;;;;;5024116;28;20274;-77
2022/10/13 01:28:01;;;;;;;13.70;7.27;;;15.10;82.10;;;;;;5022792;28;20195;-76
2022/10/13 01:30:35;;;;;;;17.40;7.40;;;15.00;82.10;;;;;;5028977;28;20270;-77
2022/10/13 01:33:17;;;;;;;17.67;7.63;;;15.00;82.20;;;;;;5022388;28;20230;-76
2022/10/13 01:35:59;;;;;;;18.27;7.83;;;15.00;82.20;;;;;;5028083;28;20262;-77
2022/10/13 01:38:37;;;;;;;19.23;7.70;;;15.00;82.20;;;;;;5031127;28;20195;-76
2022/10/13 01:41:11;;;;;;;12.33;7.13;;;15.00;82.20;;;;;;5032519;28;20226;-76
2022/10/13 01:43:44;;;;;;;14.30;7.10;;;15.00;82.30;;;;;;5029554;28;20723;-76
2022/10/13 01:46:19;;;;;;;15.07;6.63;;;15.00;82.40;;;;;;5027601;28;20575;-76
2022/10/13 01:48:48;;;;;;;16.87;7.93;;;15.00;82.40;;;;;;5023166;28;20252;-76
2022/10/13 01:51:19;;;;;;;18.53;6.80;;;15.00;82.40;;;;;;5027427;28;20254;-76
2022/10/13 01:53:49;;;;;;;16.67;7.43;;;15.00;82.50;;;;;;5029972;28;20251;-76
2022/10/13 01:56:17;;;;;;;15.13;7.13;;;14.90;82.50;;;;;;5027310;28;20200;-76
2022/10/13 01:58:47;;;;;;;13.23;7.03;;;14.90;82.50;;;;;;5026145;28;20196;-76
2022/10/13 02:01:45;;;;;;;14.67;6.87;;;14.90;82.60;;;;;;5025942;28;20255;-77
2022/10/13 02:04:23;;;;;;;14.40;7.50;;;14.90;82.70;;;;;;5028516;28;20231;-75
2022/10/13 02:06:56;;;;;;;19.27;7.77;;;14.90;82.50;;;;;;5031887;28;20200;-76
2022/10/13 02:09:30;;;;;;;18.93;8.60;;;14.90;82.50;;;;;;5029343;28;20219;-75
2022/10/13 02:12:04;;;;;;;23.17;8.60;;;14.90;82.50;;;;;;5026278;28;20223;-76
2022/10/13 02:14:36;;;;;;;17.60;7.83;;;14.90;82.50;;;;;;5029598;28;20247;-76
2022/10/13 02:17:06;;;;;;;16.37;7.30;;;14.90;82.60;;;;;;5024701;28;20219;-76
2022/10/13 02:19:37;;;;;;;19.40;7.90;;;14.90;82.60;;;;;;5022047;28;20697;-76
2022/10/13 02:22:08;;;;;;;14.20;7.73;;;14.80;82.50;;;;;;5029885;28;20652;-75
2022/10/13 02:24:36;;;;;;;17.03;8.30;;;14.80;82.50;;;;;;5013805;28;20710;-76
2022/10/13 02:27:06;;;;;;;17.93;9.00;;;14.80;82.50;;;;;;5015082;28;20231;-76
2022/10/13 02:29:34;;;;;;;22.70;9.33;;;14.80;82.50;;;;;;5028751;28;20199;-76
2022/10/13 02:32:03;;;;;;;16.73;8.67;;;14.80;82.50;;;;;;5025465;28;20684;-76
2022/10/13 02:34:32;;;;;;;18.27;8.83;;;14.90;82.50;;;;;;5021045;28;20230;-76
2022/10/13 02:37:01;;;;;;;20.17;10.30;;;14.90;82.70;;;;;;5019599;28;20258;-77
2022/10/13 02:39:29;;;;;;;18.87;9.10;;;14.90;82.80;;;;;;5019522;28;20270;-76
2022/10/13 02:41:57;;;;;;;22.33;9.27;;;14.90;83.10;;;;;;5022310;28;20231;-76
2022/10/13 02:44:25;;;;;;;17.83;9.17;;;14.90;83.20;;;;;;5021652;28;20274;-76
2022/10/13 02:46:54;;;;;;;17.07;8.50;;;14.90;83.60;;;;;;5024428;28;20235;-76
2022/10/13 02:49:22;;;;;;;19.40;8.47;;;14.90;83.70;;;;;;5017360;28;20249;-76
2022/10/13 02:51:52;;;;;;;16.67;8.77;;;14.80;84.00;;;;;;5027977;28;20184;-77
2022/10/13 02:54:20;;;;;;;19.17;9.40;;;14.80;84.40;;;;;;5022271;28;20251;-77
2022/10/13 02:56:48;;;;;;;17.87;9.67;;;14.80;84.60;;;;;;5024470;28;20265;-76
2022/10/13 02:59:17;;;;;;;28.73;9.53;;;14.80;85.30;;;;;;5019766;28;20603;-77
2022/10/13 03:01:45;;;;;;;26.80;9.20;;;14.90;85.10;;;;;;5028273;28;20238;-77
2022/10/13 03:04:13;;;;;;;19.93;8.73;;;14.80;86.20;;;;;;5017991;28;20231;-77
2022/10/13 03:06:42;;;;;;;20.30;9.30;;;14.80;86.20;;;;;;5027281;28;20231;-76
2022/10/13 03:09:11;;;;;;;19.03;9.33;;;14.90;86.10;;;;;;5027533;28;20195;-78
2022/10/13 03:11:40;;;;;;;22.43;9.93;;;14.90;85.90;;;;;;5016153;28;20189;-77
2022/10/13 03:14:08;;;;;;;20.88;10.52;;;14.90;85.80;;;;;;5020444;28;20448;-77
2022/10/13 03:16:36;;;;;;;18.63;9.90;;;14.90;86.20;;;;;;5024268;28;20704;-77
2022/10/13 03:19:04;;;;;;;20.87;9.47;;;15.00;86.00;;;;;;5023731;28;20196;-77
2022/10/13 03:21:36;;;;;;;20.27;10.23;;;15.00;85.70;;;;;;5021057;28;20226;-78
2022/10/13 03:24:05;;;;;;;19.00;10.50;;;14.90;85.50;;;;;;5022796;28;20684;-78
2022/10/13 03:26:35;;;;;;;16.63;9.17;;;14.90;85.30;;;;;;5026564;28;20246;-78
2022/10/13 03:29:03;;;;;;;19.20;9.70;;;14.90;85.20;;;;;;5022308;28;20196;-77
2022/10/13 03:31:32;;;;;;;18.53;10.00;;;14.90;85.00;;;;;;5021864;28;20287;-77
2022/10/13 03:34:00;;;;;;;21.40;9.83;;;14.90;85.00;;;;;;5017410;28;20227;-77
2022/10/13 03:36:28;;;;;;;20.00;9.73;;;14.80;84.90;;;;;;5020387;28;20263;-77
2022/10/13 03:38:56;;;;;;;19.93;10.23;;;14.80;84.70;;;;;;5029285;28;20661;-77
2022/10/13 03:41:25;;;;;;;18.50;9.67;;;14.80;84.70;;;;;;5023390;28;20235;-77
2022/10/13 03:43:55;;;;;;;22.97;10.20;;;14.80;84.60;;;;;;5016610;28;20225;-75
2022/10/13 03:46:27;;;;;;;20.47;10.43;;;14.80;84.60;;;;;;5020015;28;20728;-78
2022/10/13 03:48:56;;;;;;;21.03;11.07;;;14.70;84.70;;;;;;5026733;28;20284;-78
2022/10/13 03:51:25;;;;;;;19.60;10.30;;;14.70;84.60;;;;;;5019755;28;20644;-77
2022/10/13 03:53:53;;;;;;;23.13;10.07;;;14.70;84.90;;;;;;5025361;28;20228;-78
2022/10/13 03:56:24;;;;;;;16.83;10.07;;;14.70;84.70;;;;;;5022074;28;20301;-78
2022/10/13 03:58:56;;;;;;;22.43;9.83;;;14.70;84.90;;;;;;5027468;28;20665;-76
2022/10/13 04:01:26;;;;;;;20.70;9.70;;;14.70;84.90;;;;;;5023514;28;20227;-78
2022/10/13 04:03:56;;;;;;;19.53;9.67;;;14.70;85.10;;;;;;5026645;28;20196;-79
2022/10/13 04:06:26;;;;;;;23.33;10.33;;;14.70;85.10;;;;;;5016362;28;20223;-78
2022/10/13 04:08:55;;;;;;;19.23;9.50;;;14.70;85.70;;;;;;5018392;28;20242;-78
2022/10/13 04:11:23;;;;;;;17.53;9.17;;;14.70;85.60;;;;;;5018617;28;20195;-78
2022/10/13 04:13:52;;;;;;;20.10;10.13;;;14.80;85.50;;;;;;5026192;28;20317;-77
2022/10/13 04:16:23;;;;;;;20.83;10.20;;;14.80;85.30;;;;;;5024530;28;20273;-78
2022/10/13 04:18:53;;;;;;;20.53;9.67;;;14.80;85.40;;;;;;5019771;28;20220;-77
2022/10/13 04:21:23;;;;;;;25.70;9.67;;;14.80;85.50;;;;;;5024150;28;20195;-77
2022/10/13 04:23:53;;;;;;;22.47;8.93;;;14.80;85.80;;;;;;5021688;28;20227;-77
2022/10/13 04:26:23;;;;;;;17.63;10.37;;;14.80;85.90;;;;;;5019561;28;20196;-78
2022/10/13 04:28:53;;;;;;;15.47;8.93;;;14.80;85.90;;;;;;5030360;28;20222;-77
2022/10/13 04:31:23;;;;;;;21.23;8.30;;;14.80;86.50;;;;;;5024088;28;20187;-77
2022/10/13 04:33:53;;;;;;;16.53;9.47;;;14.80;85.80;;;;;;5020079;28;20184;-77
2022/10/13 04:36:21;;;;;;;20.53;9.17;;;14.80;85.70;;;;;;5020027;28;20259;-77
2022/10/13 04:38:50;;;;;;;18.43;9.00;;;14.80;85.70;;;;;;5020949;28;20250;-77
2022/10/13 04:41:19;;;;;;;21.20;9.87;;;14.90;85.80;;;;;;5022701;28;20228;-77
2022/10/13 04:43:48;;;;;;;17.87;9.33;;;14.90;85.60;;;;;;5019373;28;20246;-77
2022/10/13 04:46:19;;;;;;;16.70;8.50;;;14.90;85.60;;;;;;5022597;28;20234;-76
2022/10/13 04:48:49;;;;;;;18.00;9.40;;;14.90;85.50;;;;;;5022881;28;20223;-78
2022/10/13 04:51:19;;;;;;;19.17;8.30;;;14.90;85.50;;;;;;5021436;28;20728;-78
2022/10/13 04:53:48;;;;;;;23.80;9.53;;;14.90;85.80;;;;;;5018577;28;20602;-77
2022/10/13 04:56:17;;;;;;;17.17;9.10;;;14.90;85.90;;;;;;5016270;28;20224;-76
2022/10/13 04:58:46;;;;;;;18.97;9.60;;;15.00;85.90;;;;;;5024603;28;20227;-77
2022/10/13 05:01:16;;;;;;;19.13;8.73;;;15.00;85.90;;;;;;5019050;28;20238;-78
2022/10/13 05:03:52;;;;;;;18.47;8.27;;;15.00;85.90;;;;;;5021484;28;20245;-79
2022/10/13 05:06:22;;;;;;;17.77;7.80;;;15.00;85.90;;;;;;5023045;28;20191;-76
2022/10/13 05:08:51;;;;;;;17.17;9.43;;;15.10;85.80;;;;;;5016982;28;20265;-78
2022/10/13 05:11:20;;;;;;;20.13;8.50;;;15.10;85.80;;;;;;5021229;28;20227;-77
2022/10/13 05:13:49;;;;;;;14.97;8.30;;;15.10;85.70;;;;;;5017527;28;20205;-78
2022/10/13 05:16:19;;;;;;;18.87;9.23;;;15.20;85.90;;;;;;5026144;28;20259;-76
2022/10/13 05:18:48;;;;;;;19.03;8.77;;;15.20;85.90;;;;;;5021066;28;20243;-77
2022/10/13 05:21:20;;;;;;;25.73;11.60;;;15.20;85.80;;;;;;5018846;28;20240;-78
2022/10/13 05:23:52;;;;;;;29.73;12.10;;;15.20;85.70;;;;;;5020185;28;20233;-78
2022/10/13 05:26:21;;;;;;;21.20;9.57;;;15.30;85.70;;;;;;5022225;28;20196;-79
2022/10/13 05:28:50;;;;;;;19.57;8.97;;;15.30;85.70;;;;;;5031905;28;20249;-78
2022/10/13 05:31:20;;;;;;;19.67;9.33;;;15.40;85.90;;;;;;5031739;28;20193;-77
2022/10/13 05:33:49;;;;;;;19.58;10.10;;;15.40;86.10;;;;;;5033322;28;20441;-77
2022/10/13 05:36:20;;;;;;;18.77;9.37;;;15.40;86.10;;;;;;5018403;28;20324;-78
2022/10/13 05:38:51;;;;;;;18.00;8.60;;;15.40;86.00;;;;;;5024667;28;20188;-78
2022/10/13 05:41:21;;;;;;;15.60;9.03;;;15.50;85.90;;;;;;5017221;28;20198;-78
2022/10/13 05:43:51;;;;;;;21.37;10.77;;;15.50;86.00;;;;;;5025386;28;20226;-78
2022/10/13 05:46:19;;;;;;;23.03;10.33;;;15.60;85.90;;;;;;5029949;28;20188;-76
2022/10/13 05:48:47;;;;;;;22.17;8.90;;;15.60;85.80;;;;;;5027810;28;22618;-79
2022/10/13 05:51:20;;;;;;;23.23;12.80;;;15.60;85.70;;;;;;5020754;28;20223;-76
2022/10/13 05:53:54;;;;;;;39.53;20.77;;;15.60;85.50;;;;;;5017171;28;20242;-77
2022/10/13 05:56:29;;;;;;;36.83;25.07;;;15.70;85.40;;;;;;5030708;28;20226;-78
2022/10/13 05:59:02;;;;;;;30.97;17.37;;;15.70;85.00;;;;;;5030564;28;20196;-77
2022/10/13 06:01:34;;;;;;;18.40;10.10;;;15.80;85.10;;;;;;5017621;28;20223;-78
2022/10/13 06:04:08;;;;;;;17.37;9.10;;;15.80;85.80;;;;;;5025037;28;20649;-77
2022/10/13 06:06:38;;;;;;;25.93;9.70;;;15.90;84.70;;;;;;5028584;28;20623;-77
2022/10/13 06:09:07;;;;;;;16.60;8.67;;;15.90;84.50;;;;;;5032394;28;20227;-77
2022/10/13 06:11:36;;;;;;;17.37;9.40;;;15.90;84.30;;;;;;5022293;28;20223;-77
2022/10/13 06:14:04;;;;;;;19.97;9.30;;;16.00;84.20;;;;;;5024014;28;20241;-76
2022/10/13 06:16:34;;;;;;;22.83;9.03;;;16.10;85.10;;;;;;5026448;28;20628;-76
2022/10/13 06:19:02;;;;;;;20.47;8.77;;;16.10;84.30;;;;;;5034312;28;20192;-77
2022/10/13 06:21:31;;;;;;;15.63;8.80;;;16.10;84.00;;;;;;5036201;28;20676;-78
2022/10/13 06:24:00;;;;;;;17.13;7.73;;;16.20;83.80;;;;;;5027526;28;20226;-77
2022/10/13 06:26:29;;;;;;;15.33;8.57;;;16.30;83.70;;;;;;5027943;28;20653;-76
2022/10/13 06:28:57;;;;;;;15.63;8.20;;;16.40;83.50;;;;;;5036794;28;20200;-77
2022/10/13 06:31:27;;;;;;;23.40;9.30;;;16.40;83.40;;;;;;5037431;28;20542;-78
2022/10/13 06:33:55;;;;;;;15.33;8.53;;;16.50;83.10;;;;;;5034458;28;20640;-77
2022/10/13 06:36:23;;;;;;;20.93;8.93;;;16.50;83.10;;;;;;5024744;28;20239;-79
2022/10/13 06:38:53;;;;;;;17.97;8.23;;;16.60;82.40;;;;;;5031125;28;20599;-76
2022/10/13 06:41:22;;;;;;;20.13;8.43;;;16.60;81.90;;;;;;5033534;28;20192;-77
2022/10/13 06:43:51;;;;;;;13.50;7.53;;;16.70;82.20;;;;;;5032829;28;20191;-77
2022/10/13 06:46:19;;;;;;;16.80;7.80;;;16.70;81.90;;;;;;5028496;28;20316;-77
2022/10/13 06:48:49;;;;;;;21.33;8.73;;;16.80;81.80;;;;;;5030105;28;20242;-77
2022/10/13 06:51:18;;;;;;;16.83;7.83;;;16.90;81.00;;;;;;5031578;28;20657;-79
2022/10/13 06:53:46;;;;;;;24.53;8.80;;;16.90;80.60;;;;;;5028316;28;20284;-76
2022/10/13 06:56:15;;;;;;;21.10;8.13;;;17.00;80.80;;;;;;5027071;28;20286;-78
2022/10/13 06:58:44;;;;;;;18.40;7.47;;;17.00;80.60;;;;;;5031749;28;20613;-78
2022/10/13 07:01:19;;;;;;;18.20;7.87;;;17.10;80.40;;;;;;5025760;28;20199;-79
2022/10/13 07:03:49;;;;;;;14.03;7.13;;;17.10;80.20;;;;;;5032930;28;20187;-79
2022/10/13 07:06:18;;;;;;;17.13;7.47;;;17.20;80.20;;;;;;5032328;28;20227;-79
2022/10/13 07:08:46;;;;;;;16.10;6.87;;;17.20;79.90;;;;;;5033181;28;20657;-77
2022/10/13 07:11:16;;;;;;;14.60;6.97;;;17.30;79.50;;;;;;5023784;28;20222;-77
2022/10/13 07:13:45;;;;;;;17.70;6.87;;;17.30;79.10;;;;;;5024639;28;20669;-79
2022/10/13 07:16:15;;;;;;;20.90;6.73;;;17.30;78.90;;;;;;5029078;28;20270;-79
2022/10/13 07:18:43;;;;;;;14.83;6.83;;;17.40;78.90;;;;;;5021960;28;20266;-77
2022/10/13 07:21:11;;;;;;;15.13;6.77;;;17.50;78.80;;;;;;5029122;28;20295;-76
2022/10/13 07:23:40;;;;;;;18.70;7.73;;;17.50;78.60;;;;;;5031173;28;20278;-75
2022/10/13 07:26:09;;;;;;;20.47;7.67;;;17.60;78.60;;;;;;5018390;28;20668;-78
2022/10/13 07:28:39;;;;;;;18.47;7.27;;;17.60;78.60;;;;;;5016464;28;20196;-79
2022/10/13 07:31:12;;;;;;;22.97;7.80;;;17.70;77.70;;;;;;5022454;28;20296;-78
2022/10/13 07:33:41;;;;;;;19.80;8.00;;;17.70;77.90;;;;;;5030138;28;20255;-78
2022/10/13 07:36:09;;;;;;;21.03;8.30;;;17.80;78.00;;;;;;5028987;28;20216;-79
2022/10/13 07:38:38;;;;;;;20.47;8.87;;;17.90;78.00;;;;;;5018543;28;20225;-77
2022/10/13 07:41:09;;;;;;;16.60;8.03;;;17.90;77.60;;;;;;5035988;28;20227;-90
2022/10/13 07:43:38;;;;;;;18.40;8.17;;;18.00;77.70;;;;;;5030375;28;20269;-87
2022/10/13 07:46:10;;;;;;;17.03;7.47;;;18.00;77.30;;;;;;5030163;28;20198;-84
2022/10/13 07:48:38;;;;;;;16.60;8.33;;;18.10;77.40;;;;;;5033617;28;20234;-83
2022/10/13 07:51:08;;;;;;;16.70;7.27;;;18.10;77.50;;;;;;5038011;28;20265;-86
2022/10/13 07:53:37;;;;;;;22.23;8.00;;;18.20;77.30;;;;;;5036569;28;20191;-88
2022/10/13 07:56:07;;;;;;;14.77;7.63;;;18.30;77.10;;;;;;5033407;28;20196;-87
2022/10/13 07:58:38;;;;;;;16.63;6.43;;;18.30;75.40;;;;;;5026391;28;20207;-86
2022/10/13 08:01:09;;;;;;;13.83;6.67;;;18.40;75.70;;;;;;5032780;28;20732;-86
2022/10/13 08:03:37;;;;;;;17.67;6.80;;;18.40;75.70;;;;;;5028706;28;20196;-83
2022/10/13 08:06:09;;;;;;;13.70;6.43;;;18.40;75.00;;;;;;5033760;28;20222;-85
2022/10/13 08:08:39;;;;;;;12.83;7.10;;;18.50;74.60;;;;;;5031897;28;20607;-83
2022/10/13 08:11:09;;;;;;;16.90;6.80;;;18.50;74.90;;;;;;5030149;28;20188;-85
2022/10/13 08:13:41;;;;;;;11.90;5.57;;;18.60;74.60;;;;;;5033186;28;20285;-85
2022/10/13 08:16:11;;;;;;;12.00;6.20;;;18.70;74.80;;;;;;5043829;28;20273;-86
2022/10/13 08:18:40;;;;;;;11.73;6.30;;;18.70;74.80;;;;;;5023042;28;20223;-85
2022/10/13 08:21:12;;;;;;;17.20;7.20;;;18.80;75.00;;;;;;5030321;28;20664;-85
2022/10/13 08:24:00;;;;;;;17.67;6.23;;;18.80;74.30;;;;;;5034236;28;20303;-83
2022/10/13 08:26:29;;;;;;;13.20;5.83;;;18.90;74.50;;;;;;5033506;28;20227;-86
2022/10/13 08:28:58;;;;;;;14.97;6.20;;;18.90;74.60;;;;;;5032748;28;20278;-85
2022/10/13 08:31:48;;;;;;;13.90;7.37;;;19.00;74.30;;;;;;5030632;28;20657;-84
2022/10/13 08:34:22;;;;;;;13.23;5.97;;;19.10;74.10;;;;;;5033274;28;20203;-87
2022/10/13 08:36:52;;;;;;;14.90;6.33;;;19.10;73.50;;;;;;5035710;28;20227;-86
2022/10/13 08:39:21;;;;;;;13.63;5.80;;;19.20;73.20;;;;;;5032332;28;20273;-85
2022/10/13 08:41:50;;;;;;;13.27;5.70;;;19.20;73.10;;;;;;5025267;28;20868;-86
2022/10/13 08:44:23;;;;;;;11.63;5.63;;;19.30;72.60;;;;;;5028244;28;20191;-83
2022/10/13 08:47:20;;;;;;;12.40;5.60;;;19.30;72.70;;;;;;5029789;28;20199;-81
2022/10/13 08:49:49;;;;;;;10.43;5.80;;;19.50;72.60;;;;;;5031526;28;20227;-82
2022/10/13 08:52:21;;;;;;;11.33;5.67;;;19.50;72.60;;;;;;5027693;28;20189;-83
2022/10/13 08:54:50;;;;;;;9.17;5.67;;;19.60;72.80;;;;;;5032973;28;20227;-85
2022/10/13 08:57:19;;;;;;;18.50;5.93;;;19.70;72.60;;;;;;5033831;28;20191;-86
2022/10/13 08:59:49;;;;;;;13.45;5.57;;;19.80;72.30;;;;;;5023805;28;20188;-84
2022/10/13 09:02:26;;;;;;;11.50;5.03;;;19.80;71.80;;;;;;5037789;28;20702;-84
2022/10/13 09:04:54;;;;;;;12.98;6.32;;;19.90;71.70;;;;;;5026388;28;20188;-81
2022/10/13 09:07:26;;;;;;;10.87;5.87;;;20.00;71.30;;;;;;5035753;28;20563;-87
2022/10/13 09:09:55;;;;;;;11.45;5.13;;;20.10;71.10;;;;;;5029013;28;20220;-81
2022/10/13 09:12:24;;;;;;;12.25;6.68;;;20.20;71.10;;;;;;5031417;28;20620;-84
2022/10/13 09:15:02;;;;;;;13.60;5.95;;;20.20;70.00;;;;;;5030568;28;20235;-81
2022/10/13 09:17:33;;;;;;;13.05;5.22;;;20.30;70.20;;;;;;5029235;28;21607;-82
2022/10/13 09:20:05;;;;;;;11.43;5.05;;;20.30;69.90;;;;;;5024081;28;20219;-82
2022/10/13 09:22:35;;;;;;;9.57;4.53;;;20.40;69.60;;;;;;5021826;28;20231;-83
2022/10/13 09:25:17;;;;;;;12.25;5.10;;;20.40;69.40;;;;;;5020877;28;20619;-82
2022/10/13 09:27:48;;;;;;;11.30;4.55;;;20.50;69.00;;;;;;5021541;28;20236;-83
2022/10/13 09:30:34;;;;;;;10.48;5.32;;;20.60;69.20;;;;;;5026528;28;20265;-80
2022/10/13 09:33:16;;;;;;;13.13;5.50;;;20.60;69.10;;;;;;5042862;28;20274;-85
2022/10/13 09:35:49;;;;;;;8.68;4.53;;;20.70;68.80;;;;;;5030893;28;20307;-86
2022/10/13 09:38:20;;;;;;;13.50;5.93;;;20.70;68.90;;;;;;5031974;28;20303;-84
2022/10/13 09:40:58;;;;;;;15.68;4.75;;;20.80;68.70;;;;;;5026757;28;20274;-86
2022/10/13 09:43:31;;;;;;;13.98;5.25;;;20.80;68.30;;;;;;5034562;28;20273;-85
2022/10/13 09:46:01;;;;;;;15.20;5.38;;;20.90;68.00;;;;;;5033430;28;20581;-84
2022/10/13 09:48:34;;;;;;;11.05;4.43;;;21.00;67.10;;;;;;5033160;28;20196;-83
2022/10/13 09:51:02;;;;;;;8.27;4.25;;;21.00;67.20;;;;;;5030292;28;20192;-85
2022/10/13 09:53:34;;;;;;;10.43;4.47;;;21.10;67.30;;;;;;5025247;28;20822;-84
2022/10/13 09:56:14;;;;;;;12.80;3.83;;;21.10;66.60;;;;;;5034366;28;20192;-85
2022/10/13 09:58:48;;;;;;;6.47;4.10;;;21.20;66.50;;;;;;5040744;28;20335;-86
2022/10/13 10:01:23;;;;;;;9.80;4.60;;;21.20;64.60;;;;;;5032775;28;20470;-83
2022/10/13 10:03:54;;;;;;;7.63;3.92;;;21.20;64.30;;;;;;5031321;28;20278;-81
2022/10/13 10:06:24;;;;;;;12.02;4.40;;;21.20;64.40;;;;;;5041852;28;20199;-85
2022/10/13 10:08:59;;;;;;;8.77;4.63;;;21.30;65.00;;;;;;5038617;28;20202;-84
2022/10/13 10:11:34;;;;;;;11.07;4.82;;;21.40;65.30;;;;;;5028468;28;20195;-83
2022/10/13 10:14:17;;;;;;;12.65;4.88;;;21.40;65.40;;;;;;5034789;28;20199;-85
2022/10/13 10:16:53;;;;;;;9.25;5.10;;;21.50;65.10;;;;;;5032615;28;20448;-84
2022/10/13 10:19:29;;;;;;;8.25;3.92;;;21.60;63.70;;;;;;5025842;28;20296;-85
2022/10/13 10:22:04;;;;;;;13.95;3.75;;;21.60;63.10;;;;;;5030726;28;20232;-83
2022/10/13 10:24:38;;;;;;;7.43;3.85;;;21.60;63.60;;;;;;5029070;28;20223;-85
2022/10/13 10:27:16;;;;;;;10.82;4.70;;;21.60;63.00;;;;;;5023379;28;20196;-84
2022/10/13 10:29:49;;;;;;;6.32;3.63;;;21.70;63.10;;;;;;5025999;28;20226;-85
2022/10/13 10:32:33;;;;;;;10.20;3.20;;;21.70;63.00;;;;;;5021203;28;20254;-84
2022/10/13 10:35:11;;;;;;;12.02;3.78;;;21.70;63.00;;;;;;5026670;28;20254;-85
2022/10/13 10:37:55;;;;;;;9.10;3.75;;;21.80;62.20;;;;;;5018657;28;20547;-81
2022/10/13 10:40:35;;;;;;;7.13;3.40;;;21.80;62.00;;;;;;5033511;28;20297;-83
2022/10/13 10:43:32;;;;;;;8.27;3.38;;;21.80;61.60;;;;;;5025086;28;20279;-85
2022/10/13 10:46:01;;;;;;;8.98;3.13;;;21.90;61.60;;;;;;5019487;28;20216;-82
2022/10/13 10:48:35;;;;;;;6.78;2.42;;;21.90;59.80;;;;;;5027591;28;20227;-81
2022/10/13 10:51:14;;;;;;;6.30;2.78;;;21.90;60.00;;;;;;5029613;28;20191;-85
2022/10/13 10:53:54;;;;;;;8.00;2.67;;;22.00;60.30;;;;;;5033363;28;20184;-83
2022/10/13 10:56:30;;;;;;;7.60;3.45;;;22.00;60.20;;;;;;5032039;28;20244;-84
2022/10/13 10:59:10;;;;;;;8.93;3.30;;;22.00;60.00;;;;;;5033410;28;20269;-82
2022/10/13 11:01:43;;;;;;;10.55;3.65;;;22.10;59.50;;;;;;5034915;28;20228;-86
2022/10/13 11:04:35;;;;;;;8.90;3.83;;;22.10;59.10;;;;;;5024246;28;20696;-84
2022/10/13 11:07:09;;;;;;;7.70;3.53;;;22.10;56.60;;;;;;5040868;28;20226;-82
2022/10/13 11:10:02;;;;;;;7.88;3.47;;;22.10;56.80;;;;;;5039462;28;20187;-83
2022/10/13 11:13:20;;;;;;;7.40;3.15;;;22.10;57.60;;;;;;5017931;28;20207;-82
2022/10/13 11:15:49;;;;;;;6.53;3.42;;;22.10;57.20;;;;;;5033795;28;20641;-83
2022/10/13 11:19:09;;;;;;;6.78;3.30;;;22.20;57.50;;;;;;5031328;28;20287;-85
2022/10/13 11:22:19;;;;;;;6.80;2.95;;;22.20;57.30;;;;;;5019197;28;20287;-84
2022/10/13 11:24:52;;;;;;;6.65;3.17;;;22.20;56.30;;;;;;5007473;28;20578;-84
2022/10/13 11:27:27;;;;;;;12.38;3.33;;;22.30;56.90;;;;;;5034217;28;20223;-83
2022/10/13 11:29:58;;;;;;;6.57;3.35;;;22.30;57.00;;;;;;5031751;28;20188;-81
2022/10/13 11:32:54;;;;;;;7.25;3.40;;;22.30;56.90;;;;;;5030221;28;20192;-80
2022/10/13 11:35:26;;;;;;;8.55;3.22;;;22.30;55.00;;;;;;5033800;28;20866;-82
2022/10/13 11:38:14;;;;;;;8.35;3.22;;;22.40;55.80;;;;;;5035666;28;20192;-83
2022/10/13 11:41:05;;;;;;;6.85;2.72;;;22.40;55.20;;;;;;5030635;28;20274;-83
2022/10/13 11:43:43;;;;;;;12.70;4.13;;;22.40;55.60;;;;;;5032610;28;20188;-83
2022/10/13 11:46:49;;;;;;;6.18;3.00;;;22.40;55.20;;;;;;5032041;28;20195;-82
2022/10/13 11:49:44;;;;;;;6.25;2.75;;;22.50;55.40;;;;;;5031438;28;20622;-82
2022/10/13 11:52:36;;;;;;;5.82;2.97;;;22.50;55.60;;;;;;5028534;28;20227;-80
2022/10/13 11:55:13;;;;;;;7.35;3.00;;;22.50;55.60;;;;;;5035649;28;20188;-82
2022/10/13 11:57:41;;;;;;;6.57;3.10;;;22.50;55.70;;;;;;5027414;28;20223;-83
2022/10/13 12:00:15;;;;;;;10.30;3.28;;;22.50;55.20;;;;;;5033087;28;20662;-81
2022/10/13 12:02:50;;;;;;;5.60;3.10;;;22.50;55.00;;;;;;5030956;28;20836;-80
2022/10/13 12:05:27;;;;;;;5.82;2.97;;;22.50;55.10;;;;;;5025951;28;20719;-80
2022/10/13 12:07:59;;;;;;;9.00;2.53;;;22.50;55.10;;;;;;5015544;28;20620;-78
2022/10/13 12:10:32;;;;;;;9.05;2.72;;;22.60;55.10;;;;;;5035983;28;20648;-79
2022/10/13 12:13:01;;;;;;;5.25;2.50;;;22.60;55.20;;;;;;5031167;28;20196;-79
2022/10/13 12:15:35;;;;;;;6.38;2.67;;;22.60;54.80;;;;;;5024508;28;20192;-79
2022/10/13 12:18:20;;;;;;;8.90;3.00;;;22.60;54.30;;;;;;5018878;28;20229;-80
2022/10/13 12:20:53;;;;;;;5.40;2.80;;;22.60;54.60;;;;;;5017912;28;20224;-79
2022/10/13 12:23:22;;;;;;;9.70;3.25;;;22.70;54.90;;;;;;5027564;28;20672;-80
2022/10/13 12:25:56;;;;;;;5.97;2.92;;;22.70;54.60;;;;;;5024303;28;20565;-79
2022/10/13 12:28:27;;;;;;;5.15;2.83;;;22.70;53.60;;;;;;5031671;28;20245;-80
2022/10/13 12:30:57;;;;;;;6.22;2.72;;;22.80;53.70;;;;;;5031507;28;20194;-79
2022/10/13 12:33:31;;;;;;;4.25;2.50;;;22.80;54.00;;;;;;5028448;28;20238;-79
2022/10/13 12:36:13;;;;;;;7.63;3.40;;;22.80;54.10;;;;;;5029294;28;20262;-81
2022/10/13 12:38:47;;;;;;;4.65;2.60;;;22.90;53.20;;;;;;5025785;28;20675;-81
2022/10/13 12:41:22;;;;;;;7.80;2.75;;;22.90;53.30;;;;;;5024466;28;20247;-79
2022/10/13 12:43:51;;;;;;;5.72;2.60;;;23.00;53.40;;;;;;5024562;28;20195;-80
2022/10/13 12:46:40;;;;;;;5.43;2.53;;;23.00;53.60;;;;;;5019643;28;20224;-79
2022/10/13 12:49:14;;;;;;;7.30;2.83;;;23.00;53.10;;;;;;5028403;28;20228;-78
2022/10/13 12:51:44;;;;;;;6.22;2.78;;;23.10;52.60;;;;;;5018871;28;20234;-80
2022/10/13 12:54:22;;;;;;;7.60;2.75;;;23.20;52.90;;;;;;5025510;28;20270;-80
2022/10/13 12:56:55;;;;;;;6.68;3.00;;;23.20;52.20;;;;;;5027462;28;20489;-79
2022/10/13 12:59:26;;;;;;;7.85;2.97;;;23.20;51.50;;;;;;5026933;28;20192;-80
2022/10/13 13:01:59;;;;;;;9.57;2.60;;;23.30;51.60;;;;;;5013648;28;20732;-77
2022/10/13 13:04:41;;;;;;;6.68;2.90;;;23.30;51.80;;;;;;5030307;28;20226;-80
2022/10/13 13:07:31;;;;;;;5.22;2.58;;;23.30;52.00;;;;;;5028646;28;20222;-78